x

Sentry Shoal (46131) Wave Buoy

3:00am - Sun 19th Nov 2017 All times are PST. -8 hours from GMT.

  • Sig Wave height 7.5ft
  • Peak Period 7s
  • Wind
    31mph, 40mph gusts
  • Sea Temp 49°f
  • Air Temp 47°f
  • Sea Pressure 1007.6mb
  • Sentry Shoal
  • Sentry Shoal

More Historic Weather Station data

Upgrade to MSW Pro to gain access to the past 30 days of data for over 8000 Wavebouys and Weather Stations around the globe.

Join

Comparision Forecast

View Surf forecast
   
Sun 11/19 3:00am 7.5ft 7s 31 40 mph 1007.6mb 49f 47f
2:00am 7ft 6s 34 43 mph 1009.2mb 48f 47f
1:00am 8ft 6s 31 38 mph 1010.2mb 48f 47f
12:00am 7.5ft 6s 34 40 mph 1010.5mb 48f 48f
Sat 11/18 11:00pm 6ft 6s 34 40 mph 1011.6mb 49f 49f
10:00pm 6ft 6s 31 40 mph 1011.9mb 49f 49f
9:00pm 6ft 6s 27 31 mph 1012.9mb 49f 49f
8:00pm 6ft 5s 29 36 mph 1013.2mb 48f 49f
7:00pm 6ft 6s 29 36 mph 1013.5mb 48f 49f
6:00pm 6.5ft 6s 29 36 mph 1014mb 48f 49f
5:00pm 6ft 6s 27 34 mph 1014.6mb 48f 49f
4:00pm 5.5ft 5s 25 31 mph 1014.9mb 49f 49f
3:00pm 5ft 5s 25 31 mph 1015.6mb 49f 49f
2:00pm 5ft 5s 22 27 mph 1016.5mb 49f 49f
1:00pm 5.5ft 5s 29 36 mph 1016.9mb 49f 49f
12:00pm 5.5ft 5s 22 27 mph 1018mb 49f 48f
11:00am 5ft 6s 25 29 mph 1018.7mb 48f 48f
10:00am 5ft 5s 25 29 mph 1019.1mb 48f 48f
9:00am 4.5ft 5s 25 31 mph 1019.4mb 48f 47f
8:00am 4.5ft 5s 22 25 mph 1019.8mb 48f 48f
7:00am 4.5ft 4s 22 29 mph 1019.7mb 48f 47f
6:00am  -   -  22
mph
1019.9mb 48f 47f
5:00am 3.5ft 5s 22 27 mph 1020.4mb 48f 47f
4:00am 3.5ft 5s 22 27 mph 1020.5mb 48f 47f
3:00am 3.5ft 5s 22 27 mph 1021mb 49f 47f
2:00am 3.5ft 5s 22 27 mph 1021.5mb 49f 47f
1:00am 3.5ft 5s 20 25 mph 1021.7mb 49f 47f
12:00am 2.5ft 5s 22 25 mph 1022.1mb 49f 47f
Fri 11/17 11:00pm 2.5ft 4s 20 25 mph 1022mb 49f 47f
10:00pm 2.5ft 4s 20 27 mph 1021.8mb 48f 47f
9:00pm 2.5ft 3s 20 25 mph 1021.6mb 48f 46f
8:00pm 2ft 3s 20 22 mph 1021.1mb 48f 46f
7:00pm 1ft 2s 13 18 mph 1021.3mb 48f 46f
6:00pm 0.3ft 2s 13 16 mph 1020.9mb 48f 46f
5:00pm 0.3ft 4s 9 11 mph 1020.7mb 48f 46f
4:00pm 0.3ft 3s 4 7 mph 1020.6mb 48f 45f
3:00pm 0.3ft 2s 4 7 mph 1019.8mb 48f 45f
2:00pm 0.3ft 2s 4 4 mph 1019.4mb 48f 45f
1:00pm 0.3ft 3s  -  2 mph 1018.7mb 48f 46f
12:00pm 0.3ft 2s  -  0 mph 1018mb 48f 46f
11:00am 0.3ft 2s 2 2 mph 1017.2mb 48f 44f
10:00am 0.3ft 2s 2 4 mph 1016.2mb 48f 44f
9:00am 0.3ft 2s 4 7 mph 1015mb 48f 43f
8:00am 0.3ft 2s 4 4 mph 1013.8mb 48f 42f
7:00am 0.3ft 2s 4 7 mph 1012.3mb 48f 42f
6:00am 0.7ft 2s 7 9 mph 1011.1mb 48f 42f
5:00am 0.3ft 2s 9 9 mph 1010.1mb 48f 42f
4:00am 0.3ft 2s 7 9 mph 1009.2mb 48f 41f
3:00am 0.3ft 2s 4 7 mph 1008.6mb 48f 42f
2:00am 0.3ft 2s 4 7 mph 1007.9mb 48f 42f
1:00am 0.3ft 2s 9 9 mph 1007mb 48f 42f
12:00am 0.3ft 2s 7 9 mph 1006.2mb 48f 43f
Thu 11/16 11:00pm 0.3ft 3s 4 7 mph 1005.5mb 48f 43f
10:00pm 0.3ft 2s 4 7 mph 1004.6mb 48f 43f
9:00pm 0.3ft 2s 7 9 mph 1003.7mb 48f 43f
8:00pm 0.7ft 2s 9 9 mph 1003.1mb 48f 43f
7:00pm 0.7ft 2s 9 11 mph 1002.5mb 49f 43f
6:00pm 0.7ft 3s 7 9 mph 1002.2mb 48f 44f
5:00pm 0.7ft 3s 2 4 mph 1001.8mb 48f 45f
4:00pm 0.7ft 3s 7 11 mph 1001.5mb 49f 45f
3:00pm 0.3ft 2s 2 7 mph 1001.2mb 49f 45f
2:00pm 0.3ft 2s  -  2 mph 1001.3mb 49f 45f
1:00pm 0.3ft 3s 2 4 mph 1001.3mb 49f 45f
12:00pm 0.3ft 2s 2 4 mph 1001.3mb 49f 45f
11:00am 0.3ft 2s 2 4 mph 1001.2mb 49f 44f
10:00am 0.3ft 2s 2 4 mph 1001mb 49f 44f
9:00am 0.3ft 2s 4 4 mph 1000.4mb 49f 44f
8:00am 0.3ft 2s 4 7 mph 1000mb 48f 42f
7:00am 0.3ft 2s 4 4 mph 999.3mb 48f 42f
6:00am 0.3ft 2s 7 7 mph 998.6mb 48f 43f
5:00am 0.7ft 3s 4 7 mph 998.1mb 48f 42f
4:00am 0.7ft 3s 7 9 mph 997.7mb 48f 41f
3:00am 0.7ft 4s 2 4 mph 997.5mb 48f 42f
2:00am 1ft 4s 7 9 mph 997.1mb 48f 45f
1:00am 1ft 4s 4 4 mph 996.9mb 49f 44f
12:00am 1ft 4s 9 11 mph 996.8mb 49f 45f
Wed 11/15 11:00pm 1.3ft 4s 11 13 mph 996.7mb 49f 45f
10:00pm 2.5ft 4s 13 16 mph 997mb 49f 45f
9:00pm 3.5ft 4s 18 22 mph 996.9mb 49f 47f
8:00pm 3.5ft 4s 22 27 mph 996.8mb 49f 46f
7:00pm 3.5ft 5s 22 27 mph 996.7mb 49f 47f
6:00pm 3.5ft 5s 22 27 mph 997mb 49f 47f
5:00pm 4.5ft 5s 22 27 mph 997.2mb 49f 47f
4:00pm 5ft 5s 25 29 mph 997.2mb 49f 47f
3:00pm 4.5ft 5s 25 29 mph 996.9mb 49f 48f
2:00pm 4.5ft 5s 25 31 mph 997.6mb 49f 48f
1:00pm 4.5ft 5s 25 31 mph 997.3mb 49f 48f